Terminal Aerodrome Forecast
Issued by NWS

Home | Current Version | Previous Version | Text Only | Print | Product List | Glossary On
Versions: 1 2 3 4 5 6 7 8 9 10 11 12 13 14 15 16 17 18 19 20 21 22 23 24 25 26 27 28 29 30 31 32 33 34 35 36 37 38
000
FTUS45 KBOU 222004 AAA
TAFAPA
TAF AMD
KAPA 222004Z 2220/2318 15012KT P6SM FEW070 SCT120 SCT220
     FM222200 16013G20KT P6SM SCT070 SCT150
     FM230200 15013G20KT P6SM SCT070 BKN120
     FM230500 18013KT P6SM SCT070 BKN120=

USA.gov is the U.S. government's official web portal to all federal, state and local government web resources and services.